Time;durP1;ratioP1;P1;durP2;ratioP2;P2;SDS_P1;SDS_P2;PMS_P1;PMS_P2;Temp;Humidity;BMP_temperature;BMP_pressure;BME280_temperature;BME280_humidity;BME280_pressure;Samples;Min_cycle;Max_cycle;Signal;HPM_P1;HPM_P2
2021/07/02 00:01:39;;;;;;;20.05;9.23;;;16.50;99.90;;;;;;4974536;28;20023;-92
2021/07/02 00:04:06;;;;;;;18.42;8.82;;;16.50;99.90;;;;;;4974739;28;20031;-91
2021/07/02 00:06:32;;;;;;;20.35;8.82;;;16.50;99.90;;;;;;4978254;28;20054;-91
2021/07/02 00:08:58;;;;;;;20.77;9.18;;;16.50;99.90;;;;;;4991809;28;20035;-92
2021/07/02 00:11:23;;;;;;;21.40;8.98;;;16.50;99.90;;;;;;4984937;28;20054;-91
2021/07/02 00:13:49;;;;;;;21.00;8.80;;;16.40;99.90;;;;;;4978593;28;20034;-91
2021/07/02 00:16:15;;;;;;;23.05;9.40;;;16.40;99.90;;;;;;4978157;28;20033;-91
2021/07/02 00:18:40;;;;;;;20.48;8.60;;;16.40;99.90;;;;;;4977980;28;20030;-92
2021/07/02 00:21:06;;;;;;;19.98;9.18;;;16.40;99.90;;;;;;4994199;28;20050;-91
2021/07/02 00:23:32;;;;;;;23.25;9.10;;;16.30;99.90;;;;;;4978344;28;20054;-91
2021/07/02 00:25:58;;;;;;;18.13;9.15;;;16.30;99.90;;;;;;4977799;28;20019;-91
2021/07/02 00:28:24;;;;;;;18.88;8.57;;;16.30;99.90;;;;;;4993738;28;20035;-91
2021/07/02 00:30:51;;;;;;;19.33;9.57;;;16.30;99.90;;;;;;4977816;28;20027;-90
2021/07/02 00:33:16;;;;;;;21.33;9.05;;;16.20;99.90;;;;;;4977453;28;20026;-91
2021/07/02 00:35:42;;;;;;;19.17;8.10;;;16.20;99.90;;;;;;4977658;28;20096;-93
2021/07/02 00:38:09;;;;;;;15.32;8.52;;;16.20;99.90;;;;;;4978337;28;20022;-91
2021/07/02 00:40:35;;;;;;;24.20;8.45;;;16.20;99.90;;;;;;4978248;28;20027;-93
2021/07/02 00:43:00;;;;;;;18.95;8.63;;;16.20;99.90;;;;;;4994976;28;20027;-91
2021/07/02 00:45:26;;;;;;;18.55;8.38;;;16.10;99.90;;;;;;4993197;28;20030;-91
2021/07/02 00:47:52;;;;;;;20.73;8.52;;;16.10;99.90;;;;;;4977212;28;20026;-91
2021/07/02 00:50:18;;;;;;;17.98;9.02;;;16.10;99.90;;;;;;4994618;28;20049;-93
2021/07/02 00:52:44;;;;;;;20.13;9.68;;;16.10;99.90;;;;;;4994578;28;20057;-93
2021/07/02 00:55:10;;;;;;;23.88;9.00;;;16.00;99.90;;;;;;4977685;28;20043;-91
2021/07/02 00:57:37;;;;;;;22.33;9.13;;;16.00;99.90;;;;;;4978640;28;20030;-92
2021/07/02 01:00:06;;;;;;;19.33;9.25;;;16.00;99.90;;;;;;4997080;28;20436;-93
2021/07/02 01:02:32;;;;;;;17.17;9.10;;;15.90;99.90;;;;;;4994994;28;20031;-95
2021/07/02 01:04:57;;;;;;;25.35;9.38;;;15.90;99.90;;;;;;4977182;28;20523;-92
2021/07/02 01:07:23;;;;;;;16.70;8.45;;;15.80;99.90;;;;;;4996716;28;20030;-91
2021/07/02 01:09:49;;;;;;;22.17;9.05;;;15.80;99.90;;;;;;5000405;28;20042;-93
2021/07/02 01:12:15;;;;;;;17.63;8.52;;;15.70;99.90;;;;;;4990436;28;20046;-92
2021/07/02 01:14:40;;;;;;;20.50;8.88;;;15.70;99.90;;;;;;4985991;28;20042;-91
2021/07/02 01:17:06;;;;;;;18.95;9.50;;;15.60;99.90;;;;;;4993967;28;20027;-90
2021/07/02 01:19:32;;;;;;;19.20;8.88;;;15.50;99.90;;;;;;4997815;28;20049;-91
2021/07/02 01:21:58;;;;;;;20.63;8.63;;;15.50;99.90;;;;;;4986804;28;20022;-90
2021/07/02 01:24:24;;;;;;;21.70;9.00;;;15.40;99.90;;;;;;4980474;28;20022;-91
2021/07/02 01:26:51;;;;;;;21.73;9.02;;;15.40;99.90;;;;;;4979252;28;20023;-92
2021/07/02 01:29:19;;;;;;;18.35;8.43;;;15.40;99.90;;;;;;4978090;28;20066;-91
2021/07/02 01:31:44;;;;;;;23.48;9.75;;;15.40;99.90;;;;;;4977684;28;20031;-93
2021/07/02 01:34:10;;;;;;;20.05;9.80;;;15.30;99.90;;;;;;4978838;28;20089;-92
2021/07/02 01:36:36;;;;;;;20.35;9.30;;;15.40;99.90;;;;;;4978659;28;20050;-92
2021/07/02 01:39:03;;;;;;;17.23;8.75;;;15.40;99.90;;;;;;4978654;28;20084;-91
2021/07/02 01:41:29;;;;;;;22.73;8.98;;;15.30;99.90;;;;;;4977820;28;20023;-91
2021/07/02 01:43:55;;;;;;;17.73;8.95;;;15.30;99.90;;;;;;4977607;28;20038;-92
2021/07/02 01:46:20;;;;;;;20.15;9.38;;;15.30;99.90;;;;;;4978712;28;20031;-92
2021/07/02 01:48:46;;;;;;;21.42;9.50;;;15.30;99.90;;;;;;4979141;28;20030;-91
2021/07/02 01:51:12;;;;;;;21.85;10.05;;;15.20;99.90;;;;;;4978270;28;20038;-93
2021/07/02 01:53:38;;;;;;;16.27;9.43;;;15.20;99.90;;;;;;4962438;28;20035;-92
2021/07/02 01:56:04;;;;;;;19.42;9.82;;;15.10;99.90;;;;;;4977948;28;20035;-92
2021/07/02 01:58:30;;;;;;;23.35;10.25;;;15.00;99.90;;;;;;4979215;28;20033;-93
2021/07/02 02:00:55;;;;;;;24.13;10.30;;;14.90;99.90;;;;;;4962033;28;20027;-91
2021/07/02 02:03:21;;;;;;;21.58;9.95;;;14.90;99.90;;;;;;4961089;28;20388;-91
2021/07/02 02:05:48;;;;;;;20.10;10.10;;;14.90;99.90;;;;;;4976764;28;20027;-91
2021/07/02 02:08:14;;;;;;;18.58;9.30;;;14.90;99.90;;;;;;4978602;28;20031;-92
2021/07/02 02:10:39;;;;;;;21.95;9.80;;;14.80;99.90;;;;;;4960863;28;20031;-91
2021/07/02 02:13:05;;;;;;;22.10;9.57;;;14.80;99.90;;;;;;4961202;28;20022;-91
2021/07/02 02:15:31;;;;;;;24.85;9.55;;;14.80;99.90;;;;;;4960960;28;20035;-91
2021/07/02 02:17:56;;;;;;;19.25;10.43;;;14.80;99.90;;;;;;4960947;28;20457;-91
2021/07/02 02:20:22;;;;;;;21.10;10.20;;;14.80;99.90;;;;;;4976748;28;20031;-92
2021/07/02 02:22:48;;;;;;;22.00;9.65;;;14.80;99.90;;;;;;4962391;28;20058;-92
2021/07/02 02:25:14;;;;;;;25.42;10.32;;;14.90;99.90;;;;;;4977026;28;20015;-91
2021/07/02 02:27:39;;;;;;;20.13;10.02;;;14.90;99.90;;;;;;4963210;28;20475;-92
2021/07/02 02:30:07;;;;;;;25.48;10.57;;;14.80;99.90;;;;;;4978936;28;20362;-92
2021/07/02 02:32:33;;;;;;;23.55;9.77;;;14.80;99.90;;;;;;4961489;28;20117;-92
2021/07/02 02:34:59;;;;;;;22.95;10.20;;;14.80;99.90;;;;;;4978100;28;20121;-93
2021/07/02 02:37:25;;;;;;;20.75;9.63;;;14.70;99.90;;;;;;4961365;28;20027;-92
2021/07/02 02:39:50;;;;;;;25.23;11.13;;;14.60;99.90;;;;;;4960636;28;20050;-93
2021/07/02 02:42:16;;;;;;;19.67;10.02;;;14.60;99.90;;;;;;4960590;28;20031;-93
2021/07/02 02:44:42;;;;;;;19.85;9.60;;;14.50;99.90;;;;;;4960336;28;20481;-92
2021/07/02 02:47:08;;;;;;;21.67;9.73;;;14.50;99.90;;;;;;4960271;28;20058;-92
2021/07/02 02:49:34;;;;;;;23.52;9.95;;;14.40;99.90;;;;;;4960350;28;20503;-93
2021/07/02 02:51:59;;;;;;;19.45;10.57;;;14.40;99.90;;;;;;4977329;28;20035;-92
2021/07/02 02:54:25;;;;;;;19.42;9.65;;;14.40;99.90;;;;;;4960133;28;20087;-92
2021/07/02 02:57:09;;;;;;;23.75;10.63;;;14.30;99.90;;;;;;4960402;28;20547;-93
2021/07/02 02:59:38;;;;;;;19.83;9.30;;;14.30;99.90;;;;;;4960000;28;20031;-92
2021/07/02 03:02:05;;;;;;;17.45;9.35;;;14.30;99.90;;;;;;4959861;28;20476;-91
2021/07/02 03:04:33;;;;;;;23.30;9.95;;;14.30;99.90;;;;;;4977292;28;20050;-92
2021/07/02 03:06:59;;;;;;;18.90;9.77;;;14.30;99.90;;;;;;4959914;28;20555;-93
2021/07/02 03:09:25;;;;;;;19.52;10.00;;;14.30;99.90;;;;;;4977612;28;20030;-93
2021/07/02 03:11:51;;;;;;;19.33;9.77;;;14.30;99.90;;;;;;4977134;28;20051;-93
2021/07/02 03:14:21;;;;;;;23.20;10.45;;;14.40;99.90;;;;;;4959941;28;20057;-92
2021/07/02 03:16:51;;;;;;;20.45;9.18;;;14.30;99.90;;;;;;4960005;28;20120;-92
2021/07/02 03:19:17;;;;;;;22.75;10.38;;;14.30;99.90;;;;;;4977355;28;20552;-92
2021/07/02 03:21:43;;;;;;;19.67;9.70;;;14.30;99.90;;;;;;4959737;28;21131;-92
2021/07/02 03:24:10;;;;;;;24.55;10.32;;;14.30;99.90;;;;;;4959734;28;20062;-92
2021/07/02 03:26:35;;;;;;;25.55;9.40;;;14.20;99.90;;;;;;4959711;28;20078;-92
2021/07/02 03:29:02;;;;;;;22.02;10.77;;;14.20;99.90;;;;;;4959827;28;20424;-93
2021/07/02 03:31:28;;;;;;;22.02;10.50;;;14.20;99.90;;;;;;4976269;28;20081;-93
2021/07/02 03:33:53;;;;;;;24.63;10.95;;;14.10;99.90;;;;;;4966507;28;20030;-93
2021/07/02 03:36:19;;;;;;;24.42;10.88;;;14.10;99.90;;;;;;4977864;28;20037;-94
2021/07/02 03:38:45;;;;;;;25.90;11.30;;;14.10;99.90;;;;;;4970786;28;20041;-93
2021/07/02 03:41:10;;;;;;;29.27;11.10;;;14.10;99.90;;;;;;4967704;28;20038;-93
2021/07/02 03:43:36;;;;;;;24.52;10.20;;;14.10;99.90;;;;;;4959384;28;20066;-92
2021/07/02 03:46:02;;;;;;;25.33;11.50;;;14.10;99.90;;;;;;4959353;28;20473;-93
2021/07/02 03:48:28;;;;;;;20.20;10.07;;;14.20;99.90;;;;;;4959308;28;20087;-94
2021/07/02 03:50:54;;;;;;;27.15;11.02;;;14.20;99.90;;;;;;4959313;28;20033;-93
2021/07/02 03:53:19;;;;;;;24.73;11.30;;;14.30;99.90;;;;;;4959693;28;20037;-93
2021/07/02 03:55:45;;;;;;;23.30;10.60;;;14.30;99.90;;;;;;4976819;28;20508;-93
2021/07/02 03:58:11;;;;;;;28.40;11.45;;;14.30;99.90;;;;;;4960725;28;20536;-93
2021/07/02 04:00:36;;;;;;;21.77;10.20;;;14.30;99.90;;;;;;4962493;28;20481;-91
2021/07/02 04:03:02;;;;;;;20.65;11.18;;;14.30;99.90;;;;;;4961470;28;20023;-93
2021/07/02 04:05:28;;;;;;;20.60;10.05;;;14.40;99.90;;;;;;4969165;28;20058;-92
2021/07/02 04:07:54;;;;;;;21.10;10.82;;;14.40;99.90;;;;;;4976916;28;20030;-91
2021/07/02 04:10:19;;;;;;;20.67;10.48;;;14.30;99.90;;;;;;4975433;28;20027;-90
2021/07/02 04:12:45;;;;;;;22.33;10.93;;;14.30;99.90;;;;;;4981384;28;20065;-90
2021/07/02 04:15:11;;;;;;;22.50;10.82;;;14.20;99.90;;;;;;4978478;28;20065;-91
2021/07/02 04:17:38;;;;;;;18.13;10.38;;;14.20;99.90;;;;;;4977912;28;20038;-91
2021/07/02 04:20:09;;;;;;;19.33;9.88;;;14.20;99.90;;;;;;4978032;28;20034;-90
2021/07/02 04:22:36;;;;;;;22.83;11.48;;;14.20;99.90;;;;;;4977476;28;20029;-91
2021/07/02 04:25:05;;;;;;;23.10;10.63;;;14.30;99.90;;;;;;4977667;28;20030;-92
2021/07/02 04:27:31;;;;;;;18.70;9.90;;;14.30;99.90;;;;;;4977535;28;20126;-90
2021/07/02 04:29:57;;;;;;;23.08;10.40;;;14.30;99.90;;;;;;4994708;28;20054;-91
2021/07/02 04:32:22;;;;;;;24.52;11.23;;;14.40;99.90;;;;;;4994530;28;20454;-91
2021/07/02 04:34:48;;;;;;;21.42;10.23;;;14.40;99.90;;;;;;4994515;28;20053;-91
2021/07/02 04:37:14;;;;;;;24.48;11.52;;;14.50;99.90;;;;;;4976920;28;20057;-90
2021/07/02 04:39:40;;;;;;;21.52;10.27;;;14.50;99.90;;;;;;4977158;28;20031;-92
2021/07/02 04:42:06;;;;;;;22.70;11.30;;;14.50;99.90;;;;;;4976825;28;20034;-90
2021/07/02 04:44:35;;;;;;;20.38;11.45;;;14.50;99.90;;;;;;4977438;28;20030;-91
2021/07/02 04:47:02;;;;;;;22.02;11.55;;;14.50;99.90;;;;;;4977304;28;20061;-91
2021/07/02 04:49:28;;;;;;;29.77;12.65;;;14.50;99.90;;;;;;4978258;28;20038;-91
2021/07/02 04:51:54;;;;;;;24.75;11.10;;;14.60;99.90;;;;;;4979960;28;20069;-93
2021/07/02 04:54:19;;;;;;;30.05;12.57;;;14.60;99.90;;;;;;5000516;28;20022;-90
2021/07/02 04:56:48;;;;;;;29.08;12.60;;;14.60;99.90;;;;;;5001485;28;20015;-92
2021/07/02 04:59:18;;;;;;;25.05;11.70;;;14.60;99.90;;;;;;5000406;28;20025;-91
2021/07/02 05:01:44;;;;;;;20.50;11.05;;;14.60;99.90;;;;;;4985394;28;20034;-91
2021/07/02 05:04:10;;;;;;;27.08;11.95;;;14.60;99.90;;;;;;5002908;28;20031;-91
2021/07/02 05:06:39;;;;;;;22.92;10.85;;;14.70;99.90;;;;;;5001979;28;20057;-91
2021/07/02 05:09:06;;;;;;;22.27;11.10;;;14.60;99.90;;;;;;4984345;28;20022;-91
2021/07/02 05:11:34;;;;;;;23.77;11.07;;;14.60;99.90;;;;;;4981707;28;20128;-91
2021/07/02 05:14:03;;;;;;;21.92;10.90;;;14.60;99.90;;;;;;4995213;28;20033;-93
2021/07/02 05:16:28;;;;;;;27.10;11.50;;;14.60;99.90;;;;;;4995433;28;20108;-91
2021/07/02 05:18:54;;;;;;;23.35;11.05;;;14.60;99.90;;;;;;4978167;28;20034;-92
2021/07/02 05:21:20;;;;;;;23.83;10.80;;;14.60;99.90;;;;;;4997070;28;20026;-91
2021/07/02 05:23:45;;;;;;;22.98;11.40;;;14.60;99.90;;;;;;4978967;28;20038;-91
2021/07/02 05:26:12;;;;;;;25.90;12.43;;;14.60;99.90;;;;;;4978196;28;20026;-92
2021/07/02 05:28:38;;;;;;;24.50;11.05;;;14.60;99.90;;;;;;4979120;28;20031;-93
2021/07/02 05:31:04;;;;;;;26.00;11.35;;;14.60;99.90;;;;;;4987785;28;20169;-91
2021/07/02 05:33:30;;;;;;;25.35;10.85;;;14.70;99.90;;;;;;4987188;28;20440;-92
2021/07/02 05:35:55;;;;;;;23.35;11.20;;;14.70;99.90;;;;;;4982334;28;20043;-91
2021/07/02 05:38:21;;;;;;;22.83;11.45;;;14.70;99.90;;;;;;4977852;28;20034;-92
2021/07/02 05:40:47;;;;;;;26.38;11.65;;;14.70;99.90;;;;;;4977478;28;20030;-92
2021/07/02 05:43:13;;;;;;;27.77;11.32;;;14.70;99.90;;;;;;4977684;28;20061;-91
2021/07/02 05:45:40;;;;;;;25.77;11.45;;;14.80;99.90;;;;;;4976385;28;20113;-92
2021/07/02 05:48:06;;;;;;;25.67;10.80;;;14.80;99.90;;;;;;4977614;28;20036;-92
2021/07/02 05:50:32;;;;;;;30.23;12.57;;;14.90;99.90;;;;;;4977312;28;20026;-91
2021/07/02 05:52:57;;;;;;;25.63;12.20;;;15.00;99.90;;;;;;4978061;28;20042;-93
2021/07/02 05:55:24;;;;;;;32.47;13.05;;;15.00;99.90;;;;;;4980273;28;20035;-91
2021/07/02 05:57:51;;;;;;;26.55;13.73;;;15.00;99.90;;;;;;4980890;28;20472;-91
2021/07/02 06:00:18;;;;;;;30.67;13.07;;;15.10;99.90;;;;;;4980542;28;20110;-91
2021/07/02 06:02:43;;;;;;;23.85;11.50;;;15.10;99.90;;;;;;4980597;28;20476;-92
2021/07/02 06:05:09;;;;;;;25.88;12.07;;;15.10;99.90;;;;;;4980716;28;20034;-92
2021/07/02 06:07:42;;;;;;;29.67;11.77;;;15.10;99.90;;;;;;4980602;28;20109;-93
2021/07/02 06:10:08;;;;;;;28.90;11.70;;;15.10;99.90;;;;;;4980135;28;20243;-92
2021/07/02 06:12:34;;;;;;;30.50;11.75;;;15.10;99.90;;;;;;4980361;28;20120;-92
2021/07/02 06:14:59;;;;;;;26.48;12.50;;;15.20;99.90;;;;;;4980382;28;20038;-91
2021/07/02 06:17:25;;;;;;;32.38;14.65;;;15.30;99.90;;;;;;4980273;28;20112;-92
2021/07/02 06:19:51;;;;;;;36.05;14.00;;;15.30;99.90;;;;;;4980269;28;20069;-91
2021/07/02 06:22:16;;;;;;;27.95;12.43;;;15.40;99.90;;;;;;4979739;28;20092;-92
2021/07/02 06:24:42;;;;;;;27.42;12.25;;;15.40;99.90;;;;;;4980099;28;20077;-92
2021/07/02 06:27:08;;;;;;;32.88;13.60;;;15.50;99.90;;;;;;4997749;28;20109;-92
2021/07/02 06:29:33;;;;;;;29.65;15.07;;;15.50;99.90;;;;;;4997364;28;20472;-92
2021/07/02 06:31:59;;;;;;;32.67;14.75;;;15.50;99.90;;;;;;4980126;28;20022;-92
2021/07/02 06:34:24;;;;;;;28.77;12.73;;;15.50;99.90;;;;;;4996966;28;20034;-91
2021/07/02 06:36:50;;;;;;;27.90;12.20;;;15.50;99.90;;;;;;4997033;28;20053;-93
2021/07/02 06:39:16;;;;;;;31.15;14.07;;;15.60;99.90;;;;;;4979491;28;20495;-91
2021/07/02 06:41:41;;;;;;;30.65;13.32;;;15.60;99.90;;;;;;4997071;28;20120;-92
2021/07/02 06:44:07;;;;;;;31.73;13.40;;;15.70;99.90;;;;;;4979353;28;20452;-92
2021/07/02 06:46:33;;;;;;;32.15;13.73;;;15.80;99.90;;;;;;4976872;28;20176;-92
2021/07/02 06:49:00;;;;;;;30.60;13.30;;;15.80;99.90;;;;;;4979186;28;20058;-92
2021/07/02 06:51:25;;;;;;;37.10;14.55;;;15.90;99.90;;;;;;4979040;28;20031;-91
2021/07/02 06:53:52;;;;;;;32.38;13.43;;;15.90;99.90;;;;;;4983360;28;20038;-92
2021/07/02 06:56:18;;;;;;;30.75;13.32;;;16.00;99.90;;;;;;4984598;28;20027;-92
2021/07/02 06:58:44;;;;;;;33.80;14.43;;;16.10;99.90;;;;;;4964180;28;20488;-94
2021/07/02 07:01:09;;;;;;;33.88;15.57;;;16.20;99.90;;;;;;4984342;28;20556;-93
2021/07/02 07:03:36;;;;;;;43.97;16.20;;;16.20;99.90;;;;;;4973979;28;20026;-93
2021/07/02 07:06:02;;;;;;;35.67;17.05;;;16.30;99.90;;;;;;4966257;28;20022;-93
2021/07/02 07:08:28;;;;;;;41.20;16.58;;;16.30;99.90;;;;;;4973078;28;20023;-93
2021/07/02 07:10:53;;;;;;;37.60;14.45;;;16.30;99.90;;;;;;4956949;28;20118;-93
2021/07/02 07:13:19;;;;;;;34.28;15.18;;;16.40;99.90;;;;;;4966534;28;20457;-93
2021/07/02 07:15:47;;;;;;;36.63;15.20;;;16.50;99.90;;;;;;4947126;29;20073;-92
2021/07/02 07:18:12;;;;;;;33.95;14.57;;;16.60;99.90;;;;;;4945901;28;20500;-94
2021/07/02 07:20:38;;;;;;;30.08;12.77;;;16.70;99.90;;;;;;4951146;29;20012;-92
2021/07/02 07:23:03;;;;;;;43.70;15.18;;;16.70;99.90;;;;;;4966280;29;20062;-93
2021/07/02 07:25:29;;;;;;;27.63;13.80;;;16.80;99.90;;;;;;4940759;29;20055;-93
2021/07/02 07:27:55;;;;;;;27.88;11.95;;;16.80;99.90;;;;;;4940351;29;20481;-95
2021/07/02 07:30:21;;;;;;;23.02;11.77;;;16.80;99.90;;;;;;4962007;28;20409;-93
2021/07/02 07:32:49;;;;;;;21.52;10.05;;;16.80;99.90;;;;;;4949795;28;20031;-93
2021/07/02 07:35:28;;;;;;;19.85;9.07;;;16.80;99.90;;;;;;4947151;29;20093;-92
2021/07/02 07:37:57;;;;;;;19.83;10.30;;;16.70;99.90;;;;;;4945568;29;20026;-93
2021/07/02 07:40:26;;;;;;;19.92;8.80;;;16.70;99.90;;;;;;4950335;28;20086;-92
2021/07/02 07:42:52;;;;;;;19.10;9.30;;;16.70;99.90;;;;;;4964470;28;20030;-93
2021/07/02 07:45:18;;;;;;;23.20;8.70;;;16.70;99.90;;;;;;4948367;28;20024;-93
2021/07/02 07:47:44;;;;;;;22.60;9.75;;;16.70;99.90;;;;;;4967476;28;20031;-93
2021/07/02 07:50:13;;;;;;;27.40;11.18;;;16.70;99.90;;;;;;4961376;28;20035;-93
2021/07/02 07:52:46;;;;;;;28.20;11.35;;;16.70;99.90;;;;;;4970929;28;20035;-92
2021/07/02 07:55:12;;;;;;;35.60;14.77;;;16.80;99.90;;;;;;4942287;29;20048;-95
2021/07/02 07:57:38;;;;;;;36.75;14.05;;;16.80;99.90;;;;;;4939739;29;20031;-94
2021/07/02 08:00:06;;;;;;;37.28;14.25;;;16.80;99.90;;;;;;4940091;28;20031;-93
2021/07/02 08:02:32;;;;;;;36.42;15.82;;;16.80;99.90;;;;;;4944696;29;20034;-92
2021/07/02 08:04:57;;;;;;;37.42;15.95;;;16.80;99.90;;;;;;4947358;29;20122;-94
2021/07/02 08:07:23;;;;;;;38.60;16.13;;;16.90;99.90;;;;;;4964144;28;20033;-93
2021/07/02 08:09:49;;;;;;;39.65;16.65;;;16.90;99.90;;;;;;4943206;29;20481;-94
2021/07/02 08:12:15;;;;;;;39.17;16.63;;;16.90;99.90;;;;;;4961205;28;20042;-93
2021/07/02 08:14:41;;;;;;;40.13;16.48;;;17.00;99.90;;;;;;4966992;28;20065;-92
2021/07/02 08:17:07;;;;;;;39.03;16.55;;;17.00;99.90;;;;;;4962795;28;20022;-94
2021/07/02 08:19:34;;;;;;;37.50;15.40;;;17.10;99.90;;;;;;4964115;28;20029;-95
2021/07/02 08:21:59;;;;;;;39.25;16.20;;;17.20;99.90;;;;;;4969784;28;20082;-92
2021/07/02 08:24:25;;;;;;;40.65;15.20;;;17.20;99.90;;;;;;4960977;28;20023;-93
2021/07/02 08:26:56;;;;;;;35.05;14.90;;;17.30;99.90;;;;;;4952752;28;20026;-93
2021/07/02 08:29:22;;;;;;;39.13;16.10;;;17.30;99.90;;;;;;4992207;28;20059;-93
2021/07/02 08:31:49;;;;;;;39.78;15.77;;;17.40;99.90;;;;;;4998892;28;20030;-93
2021/07/02 08:34:14;;;;;;;37.60;15.55;;;17.40;99.90;;;;;;5012787;28;20066;-93
2021/07/02 08:36:40;;;;;;;39.65;15.63;;;17.60;99.90;;;;;;4986333;28;20057;-93
2021/07/02 08:39:06;;;;;;;34.80;14.85;;;17.70;99.90;;;;;;4964157;28;20586;-94
2021/07/02 08:41:32;;;;;;;31.25;14.75;;;17.80;99.90;;;;;;4982261;28;20074;-94
2021/07/02 08:43:58;;;;;;;35.53;14.82;;;18.00;99.90;;;;;;4979706;28;20388;-94
2021/07/02 08:46:24;;;;;;;36.22;16.52;;;18.10;99.90;;;;;;4991727;28;20030;-93
2021/07/02 08:48:51;;;;;;;34.30;16.05;;;18.20;99.90;;;;;;4976117;28;20134;-95
2021/07/02 08:51:18;;;;;;;39.15;18.00;;;18.20;99.90;;;;;;4993330;28;20026;-93
2021/07/02 08:53:43;;;;;;;38.38;15.77;;;18.20;99.90;;;;;;4973207;28;20030;-93
2021/07/02 08:56:09;;;;;;;40.95;16.75;;;18.30;99.90;;;;;;4971386;28;20030;-95
2021/07/02 08:58:36;;;;;;;42.05;18.52;;;18.40;99.90;;;;;;4969772;28;20025;-93
2021/07/02 09:01:09;;;;;;;38.88;16.55;;;18.40;99.90;;;;;;4964703;28;20022;-92
2021/07/02 09:03:37;;;;;;;35.30;15.25;;;18.50;99.90;;;;;;4974963;28;20022;-92
2021/07/02 09:06:05;;;;;;;41.90;16.70;;;18.70;99.90;;;;;;4970215;28;20031;-94
2021/07/02 09:08:32;;;;;;;32.88;16.52;;;18.90;99.90;;;;;;4966101;28;20022;-93
2021/07/02 09:10:58;;;;;;;37.55;16.42;;;19.10;99.90;;;;;;4979585;28;20034;-92
2021/07/02 09:13:40;;;;;;;30.73;15.82;;;19.00;99.70;;;;;;4984327;28;20580;-92
2021/07/02 09:16:21;;;;;;;37.63;17.17;;;19.00;99.40;;;;;;4967483;28;20061;-92
2021/07/02 09:18:46;;;;;;;35.10;15.02;;;19.00;99.60;;;;;;4979872;28;20034;-92
2021/07/02 09:21:29;;;;;;;33.08;16.30;;;19.20;99.90;;;;;;4967355;28;20477;-93
2021/07/02 09:23:59;;;;;;;33.42;14.57;;;19.20;98.80;;;;;;4957830;28;20488;-93
2021/07/02 09:26:43;;;;;;;34.28;14.27;;;19.30;98.50;;;;;;4958242;28;20019;-92
2021/07/02 09:29:23;;;;;;;34.72;17.20;;;19.30;98.60;;;;;;4959613;28;20066;-95
2021/07/02 09:31:59;;;;;;;34.40;16.40;;;19.70;98.40;;;;;;4977936;28;20439;-95
2021/07/02 09:34:51;;;;;;;35.97;15.93;;;19.90;97.50;;;;;;4980086;28;20046;-94
2021/07/02 09:37:25;;;;;;;33.72;14.52;;;20.10;96.70;;;;;;4969049;28;20058;-94
2021/07/02 09:39:50;;;;;;;34.90;15.45;;;20.30;96.00;;;;;;4979349;28;20042;-94
2021/07/02 09:42:26;;;;;;;32.95;14.98;;;20.40;95.30;;;;;;4979864;28;20027;-94
2021/07/02 09:45:15;;;;;;;38.35;16.70;;;20.60;94.80;;;;;;4962922;28;20034;-95
2021/07/02 09:47:43;;;;;;;31.13;15.40;;;20.70;94.30;;;;;;4965278;28;20035;-95
2021/07/02 09:50:24;;;;;;;29.63;14.63;;;20.80;93.60;;;;;;4972065;28;20038;-95
2021/07/02 09:52:52;;;;;;;38.88;15.82;;;20.90;93.30;;;;;;4977826;28;20031;-95
2021/07/02 09:55:20;;;;;;;28.92;13.75;;;21.10;92.70;;;;;;4972717;28;20038;-95
2021/07/02 09:57:46;;;;;;;31.08;13.98;;;21.30;92.20;;;;;;4981278;28;20022;-96
2021/07/02 10:00:14;;;;;;;30.95;13.98;;;21.50;91.40;;;;;;4975310;28;20030;-94
2021/07/02 10:02:50;;;;;;;30.98;13.95;;;21.50;90.70;;;;;;4961369;28;20447;-94
2021/07/02 10:05:16;;;;;;;32.40;13.57;;;21.50;90.40;;;;;;4978549;28;20041;-94
2021/07/02 10:07:58;;;;;;;36.15;14.27;;;21.40;90.20;;;;;;4961078;28;20027;-94
2021/07/02 10:10:25;;;;;;;31.60;13.40;;;21.40;90.20;;;;;;4978693;28;20035;-94
2021/07/02 10:12:53;;;;;;;30.35;14.13;;;21.30;90.30;;;;;;4961387;28;20043;-93
2021/07/02 10:15:20;;;;;;;30.13;13.25;;;21.20;90.30;;;;;;4960548;28;20035;-94
2021/07/02 10:17:45;;;;;;;31.38;13.23;;;21.20;90.10;;;;;;4961022;28;20035;-93
2021/07/02 10:20:13;;;;;;;26.10;12.70;;;21.10;90.20;;;;;;4976885;28;20027;-95
2021/07/02 10:22:41;;;;;;;34.35;14.13;;;21.20;90.30;;;;;;4977031;28;20555;-94
2021/07/02 10:25:10;;;;;;;31.38;13.25;;;21.20;90.10;;;;;;4977652;28;20035;-95
2021/07/02 10:27:38;;;;;;;29.80;14.85;;;21.20;89.60;;;;;;4977396;28;20027;-94
2021/07/02 10:30:04;;;;;;;31.20;14.02;;;21.20;89.20;;;;;;4977808;28;20035;-94
2021/07/02 10:32:33;;;;;;;34.75;14.43;;;21.10;89.10;;;;;;4977266;28;20054;-94
2021/07/02 10:34:59;;;;;;;35.35;15.07;;;21.00;89.70;;;;;;4976950;28;20042;-94
2021/07/02 10:37:25;;;;;;;37.47;14.85;;;21.00;89.40;;;;;;4978400;28;20030;-93
2021/07/02 10:39:53;;;;;;;34.78;14.25;;;21.10;88.80;;;;;;4976332;28;20038;-94
2021/07/02 10:42:18;;;;;;;31.92;14.40;;;21.10;88.40;;;;;;4978656;28;20018;-94
2021/07/02 10:44:53;;;;;;;27.85;14.15;;;21.20;88.30;;;;;;4996568;28;20114;-95
2021/07/02 10:47:20;;;;;;;28.00;13.55;;;21.20;88.00;;;;;;4979545;28;20041;-93
2021/07/02 10:49:46;;;;;;;36.25;13.57;;;21.10;88.00;;;;;;4997136;28;20077;-95
2021/07/02 10:52:25;;;;;;;32.72;13.32;;;21.10;88.50;;;;;;4997432;28;20088;-94
2021/07/02 10:54:56;;;;;;;32.55;14.10;;;21.10;89.00;;;;;;4996999;28;20030;-95
2021/07/02 10:57:24;;;;;;;35.67;14.98;;;21.00;89.10;;;;;;4979532;28;20022;-94
2021/07/02 10:59:50;;;;;;;31.52;14.38;;;21.00;89.40;;;;;;4979124;28;20026;-95
2021/07/02 11:02:17;;;;;;;28.20;13.88;;;20.90;89.60;;;;;;4979602;28;20018;-95
2021/07/02 11:04:50;;;;;;;31.75;15.48;;;20.90;89.70;;;;;;4979476;28;20030;-94
2021/07/02 11:07:18;;;;;;;28.77;14.60;;;20.80;90.00;;;;;;4979440;28;20468;-93
2021/07/02 11:12:18;;;;;;;31.65;14.10;;;20.80;90.00;;;;;;4977721;28;20039;-96
2021/07/02 11:14:55;;;;;;;35.67;14.57;;;20.70;89.60;;;;;;4986253;28;20112;-94
2021/07/02 11:17:23;;;;;;;31.33;14.10;;;20.60;89.90;;;;;;4979311;28;20045;-94
2021/07/02 11:22:37;;;;;;;26.60;13.68;;;20.80;89.10;;;;;;4996421;28;20445;-95
2021/07/02 11:25:07;;;;;;;26.38;12.63;;;20.80;88.50;;;;;;4978830;28;20049;-94
2021/07/02 11:27:42;;;;;;;27.98;12.63;;;20.80;87.50;;;;;;4979032;28;20026;-94
2021/07/02 11:30:36;;;;;;;28.35;12.05;;;20.80;87.20;;;;;;4978749;28;20089;-94
2021/07/02 11:33:09;;;;;;;24.02;12.30;;;20.90;87.20;;;;;;4968612;28;20088;-93
2021/07/02 11:35:37;;;;;;;27.42;11.30;;;20.90;86.70;;;;;;4979733;28;20053;-93
2021/07/02 11:38:16;;;;;;;24.48;12.23;;;20.90;86.50;;;;;;4978670;28;20046;-93
2021/07/02 11:40:58;;;;;;;22.40;12.13;;;20.80;87.00;;;;;;4980218;28;20058;-95
2021/07/02 11:43:32;;;;;;;22.33;11.85;;;20.90;87.50;;;;;;4996304;28;20041;-95
2021/07/02 11:46:01;;;;;;;24.92;12.02;;;20.80;87.40;;;;;;4977240;28;20026;-95
2021/07/02 11:48:44;;;;;;;28.10;13.20;;;20.70;87.60;;;;;;4968240;28;20030;-94
2021/07/02 11:51:18;;;;;;;24.23;12.43;;;20.70;88.80;;;;;;4957240;28;20480;-94
2021/07/02 11:53:44;;;;;;;25.70;12.55;;;20.70;88.70;;;;;;4968814;28;20036;-94
2021/07/02 11:56:26;;;;;;;26.73;14.40;;;20.80;88.80;;;;;;4977424;28;20116;-95
2021/07/02 11:59:06;;;;;;;26.95;13.55;;;20.80;88.80;;;;;;4978247;28;20511;-94
2021/07/02 12:01:38;;;;;;;24.60;13.02;;;20.70;89.20;;;;;;4978582;28;20033;-96
2021/07/02 12:04:09;;;;;;;26.75;14.05;;;20.70;89.60;;;;;;4980754;28;20113;-95
2021/07/02 12:06:42;;;;;;;23.10;13.07;;;20.80;89.90;;;;;;4996236;28;20030;-94
2021/07/02 12:09:08;;;;;;;25.73;13.30;;;20.80;90.00;;;;;;4978198;28;20025;-94
2021/07/02 12:11:37;;;;;;;26.58;12.73;;;20.80;90.00;;;;;;4978042;28;20100;-95
2021/07/02 12:14:06;;;;;;;30.38;14.93;;;20.70;90.20;;;;;;4996258;28;20042;-94
2021/07/02 12:16:38;;;;;;;31.02;13.98;;;20.70;90.40;;;;;;4986510;28;20061;-94
2021/07/02 12:19:08;;;;;;;30.67;14.30;;;20.60;90.60;;;;;;4992889;28;20026;-94
2021/07/02 12:21:36;;;;;;;27.08;13.63;;;20.60;90.80;;;;;;4972941;28;20030;-93
2021/07/02 12:24:05;;;;;;;29.75;14.75;;;20.60;90.80;;;;;;4994841;28;20096;-93
2021/07/02 12:26:33;;;;;;;28.27;14.40;;;20.60;90.80;;;;;;4978584;28;20124;-95
2021/07/02 12:29:13;;;;;;;28.27;14.63;;;20.70;90.80;;;;;;4977831;28;20030;-94
2021/07/02 12:31:41;;;;;;;27.58;13.77;;;20.70;90.70;;;;;;4979111;28;20484;-94
2021/07/02 12:34:31;;;;;;;26.20;14.00;;;20.70;90.60;;;;;;4979760;28;20030;-94
2021/07/02 12:37:01;;;;;;;29.02;13.35;;;20.80;90.60;;;;;;4989734;28;20043;-94